Time;durP1;ratioP1;P1;durP2;ratioP2;P2;SDS_P1;SDS_P2;PMS_P1;PMS_P2;Temp;Humidity;BMP_temperature;BMP_pressure;BME280_temperature;BME280_humidity;BME280_pressure;Samples;Min_cycle;Max_cycle;Signal;HPM_P1;HPM_P2
2023/03/20 00:02:21;;;;;;;17.73;10.40;;;;;;;7.79;100.00;101839.47;5278995;28;20032;-72
2023/03/20 00:04:53;;;;;;;17.60;10.35;;;;;;;7.74;100.00;101844.16;5285716;28;20033;-72
2023/03/20 00:07:24;;;;;;;20.30;10.60;;;;;;;7.74;100.00;101846.81;5289171;28;20020;-72
2023/03/20 00:09:56;;;;;;;23.20;10.48;;;;;;;7.71;100.00;101841.63;5280735;28;20028;-71
2023/03/20 00:12:28;;;;;;;21.90;10.55;;;;;;;7.80;100.00;101835.88;5282189;28;20028;-72
2023/03/20 00:15:03;;;;;;;17.13;10.25;;;;;;;7.75;100.00;101835.25;5292674;28;20370;-72
2023/03/20 00:17:34;;;;;;;19.98;10.82;;;;;;;7.73;100.00;101845.94;5286835;28;20477;-72
2023/03/20 00:20:12;;;;;;;16.02;9.57;;;;;;;7.71;100.00;101845.16;5288006;28;20032;-72
2023/03/20 00:22:43;;;;;;;18.98;9.85;;;;;;;7.68;100.00;101839.13;5282036;28;20070;-72
2023/03/20 00:25:18;;;;;;;17.23;10.18;;;;;;;7.66;100.00;101832.09;5285505;28;20115;-72
2023/03/20 00:27:50;;;;;;;22.38;10.50;;;;;;;7.65;100.00;101827.72;5281175;28;20059;-72
2023/03/20 00:30:28;;;;;;;17.77;9.98;;;;;;;7.61;100.00;101820.84;5282987;28;20057;-72
2023/03/20 00:33:00;;;;;;;20.95;10.35;;;;;;;7.55;100.00;101814.94;5287992;28;20027;-72
2023/03/20 00:35:32;;;;;;;20.73;10.18;;;;;;;7.69;100.00;101808.97;5294428;28;20031;-72
2023/03/20 00:38:03;;;;;;;18.05;9.10;;;;;;;7.57;100.00;101807.78;5285423;28;20075;-72
2023/03/20 00:40:35;;;;;;;19.75;10.20;;;;;;;7.45;100.00;101809.22;5285691;28;20027;-72
2023/03/20 00:43:09;;;;;;;17.60;9.27;;;;;;;7.37;100.00;101795.47;5286609;28;20028;-71
2023/03/20 00:45:44;;;;;;;16.52;9.93;;;;;;;7.31;100.00;101799.28;5280002;28;20028;-74
2023/03/20 00:48:15;;;;;;;18.75;9.70;;;;;;;7.31;100.00;101795.75;5285197;28;20023;-72
2023/03/20 00:50:48;;;;;;;16.85;8.82;;;;;;;7.41;100.00;101797.03;5285499;28;20028;-72
2023/03/20 00:53:19;;;;;;;19.02;10.23;;;;;;;7.24;100.00;101792.53;5284913;28;20020;-72
2023/03/20 00:55:51;;;;;;;17.90;9.63;;;;;;;7.19;100.00;101794.53;5282429;28;20046;-72
2023/03/20 00:58:22;;;;;;;19.13;9.75;;;;;;;7.12;100.00;101801.06;5285812;28;20047;-72
2023/03/20 01:00:54;;;;;;;19.17;9.65;;;;;;;7.09;100.00;101817.13;5286037;28;20118;-71
2023/03/20 01:03:28;;;;;;;16.05;9.27;;;;;;;6.95;100.00;101815.13;5282533;28;20039;-72
2023/03/20 01:06:00;;;;;;;;;;;;;;;7.01;100.00;101836.06;5283087;28;20433;-72
2023/03/20 01:08:31;;;;;;;16.88;9.05;;;;;;;6.84;100.00;101842.97;5283950;28;19916;-72
2023/03/20 01:11:02;;;;;;;17.85;8.77;;;;;;;6.92;100.00;101845.28;5283181;28;20378;-72
2023/03/20 01:13:36;;;;;;;18.23;10.35;;;;;;;6.79;100.00;101852.94;5284191;28;20045;-71
2023/03/20 01:16:23;;;;;;;19.77;9.82;;;;;;;6.73;100.00;101850.56;5278413;28;20047;-72
2023/03/20 01:18:55;;;;;;;18.45;10.27;;;;;;;6.75;100.00;101838.09;5280098;28;20036;-71
2023/03/20 01:21:26;;;;;;;20.45;9.95;;;;;;;6.79;100.00;101821.13;5281507;28;20367;-72
2023/03/20 01:23:58;;;;;;;17.80;10.38;;;;;;;6.72;100.00;101822.31;5280575;28;21197;-73
2023/03/20 01:26:37;;;;;;;19.88;10.10;;;;;;;6.67;100.00;101814.56;5279258;28;20139;-71
2023/03/20 01:29:23;;;;;;;18.83;10.52;;;;;;;6.68;100.00;101816.28;5280136;28;20024;-71
2023/03/20 01:31:55;;;;;;;20.77;10.32;;;;;;;6.72;100.00;101830.28;5284036;28;20035;-72
2023/03/20 01:34:26;;;;;;;20.77;11.27;;;;;;;6.58;100.00;101838.84;5278898;28;20504;-72
2023/03/20 01:36:58;;;;;;;20.17;10.90;;;;;;;6.63;100.00;101828.00;5280297;28;20028;-72
2023/03/20 01:39:34;;;;;;;20.95;12.00;;;;;;;6.50;100.00;101830.38;5283872;28;20093;-72
2023/03/20 01:42:06;;;;;;;22.33;11.98;;;;;;;6.62;100.00;101816.56;5287482;28;20058;-73
2023/03/20 01:44:38;;;;;;;22.17;11.70;;;;;;;6.48;100.00;101832.19;5287388;28;20050;-71
2023/03/20 01:47:22;;;;;;;22.33;12.13;;;;;;;6.49;100.00;101831.28;5287201;28;20028;-72
2023/03/20 01:50:18;;;;;;;22.60;11.60;;;;;;;6.53;100.00;101824.91;5285048;28;20028;-72
2023/03/20 01:52:57;;;;;;;19.83;11.68;;;;;;;6.40;100.00;101816.63;5281841;28;20408;-71
2023/03/20 01:55:29;;;;;;;23.02;11.68;;;;;;;6.43;100.00;101813.84;5288911;28;20084;-72
2023/03/20 01:58:06;;;;;;;20.67;11.55;;;;;;;6.39;100.00;101814.06;5294752;28;20032;-72
2023/03/20 02:00:38;;;;;;;26.27;12.70;;;;;;;6.51;100.00;101812.66;5292339;28;20032;-72
2023/03/20 02:03:09;;;;;;;25.30;12.63;;;;;;;6.35;100.00;101815.09;5291546;28;20105;-72
2023/03/20 02:05:42;;;;;;;20.88;12.20;;;;;;;6.47;100.00;101823.38;5297031;28;20092;-73
2023/03/20 02:08:21;;;;;;;25.20;12.25;;;;;;;6.34;100.00;101806.28;5293934;28;20028;-73
2023/03/20 02:10:54;;;;;;;22.35;12.63;;;;;;;6.37;100.00;101814.13;5288353;28;20176;-72
2023/03/20 02:13:30;;;;;;;22.58;12.63;;;;;;;6.27;100.00;101833.97;5301582;28;20024;-72
2023/03/20 02:16:09;;;;;;;28.98;13.80;;;;;;;6.22;100.00;101841.28;5290582;28;20446;-72
2023/03/20 02:18:44;;;;;;;23.55;12.73;;;;;;;6.18;100.00;101832.59;5302060;28;20114;-72
2023/03/20 02:21:21;;;;;;;23.15;12.77;;;;;;;6.13;100.00;101833.72;5296385;28;20027;-73
2023/03/20 02:24:22;;;;;;;27.33;13.77;;;;;;;6.15;100.00;101839.81;5297824;28;20047;-73
2023/03/20 02:27:19;;;;;;;27.65;13.82;;;;;;;6.06;100.00;101843.72;5288445;28;20089;-73
2023/03/20 02:30:12;;;;;;;25.88;13.70;;;;;;;6.01;100.00;101849.19;5289199;28;20122;-73
2023/03/20 02:33:08;;;;;;;26.60;14.10;;;;;;;6.03;100.00;101850.00;5288617;28;20032;-72
2023/03/20 02:36:04;;;;;;;25.10;14.25;;;;;;;5.99;100.00;101848.41;5290211;28;20027;-73
2023/03/20 02:39:03;;;;;;;25.75;14.40;;;;;;;5.98;100.00;101827.25;5285752;28;20127;-75
2023/03/20 02:41:43;;;;;;;29.95;15.23;;;;;;;6.08;100.00;101829.47;5291323;28;20143;-72
2023/03/20 02:44:53;;;;;;;27.77;14.70;;;;;;;6.11;100.00;101828.47;5286484;28;20107;-73
2023/03/20 02:47:41;;;;;;;29.15;14.23;;;;;;;5.99;100.00;101824.56;5270540;28;20059;-73
2023/03/20 02:50:27;;;;;;;25.95;13.75;;;;;;;6.01;100.00;101813.91;5288157;28;20075;-72
2023/03/20 02:53:23;;;;;;;30.27;15.38;;;;;;;6.05;100.00;101820.78;5289728;28;20036;-72
2023/03/20 02:56:13;;;;;;;27.65;13.98;;;;;;;6.10;100.00;101816.16;5294163;28;20115;-73
2023/03/20 02:58:54;;;;;;;27.05;15.43;;;;;;;5.97;100.00;101814.97;5281152;28;20083;-72
2023/03/20 03:02:16;;;;;;;25.92;15.27;;;;;;;5.92;100.00;101809.81;5290329;28;20028;-72
2023/03/20 03:04:52;;;;;;;31.20;14.48;;;;;;;5.94;100.00;101802.66;5281487;28;20040;-72
2023/03/20 03:07:29;;;;;;;26.85;14.75;;;;;;;5.85;100.00;101803.91;5286959;28;20054;-72
2023/03/20 03:10:17;;;;;;;29.60;14.65;;;;;;;5.87;100.00;101806.50;5293011;28;20184;-72
2023/03/20 03:12:51;;;;;;;30.38;15.80;;;;;;;5.88;100.00;101801.13;5284754;28;20039;-72
2023/03/20 03:15:35;;;;;;;;;;;;;;;5.91;100.00;101800.16;5289708;28;20042;-72
2023/03/20 03:18:13;;;;;;;25.40;13.75;;;;;;;5.86;100.00;101791.53;5283732;28;19920;-72
2023/03/20 03:20:47;;;;;;;27.55;13.95;;;;;;;5.81;100.00;101781.13;5282060;28;20035;-72
2023/03/20 03:23:46;;;;;;;30.25;15.00;;;;;;;5.84;100.00;101780.13;5282087;28;20027;-72
2023/03/20 03:26:26;;;;;;;25.95;14.68;;;;;;;5.93;100.00;101777.09;5292348;28;20447;-72
2023/03/20 03:29:01;;;;;;;28.20;15.15;;;;;;;5.84;100.00;101772.19;5285813;28;20032;-72
2023/03/20 03:31:32;;;;;;;30.55;14.32;;;;;;;5.86;100.00;101770.34;5291810;28;20017;-72
2023/03/20 03:34:05;;;;;;;26.80;15.05;;;;;;;5.93;100.00;101781.56;5283536;28;20020;-72
2023/03/20 03:36:58;;;;;;;24.85;14.32;;;;;;;5.85;100.00;101780.06;5289018;28;20068;-73
2023/03/20 03:39:48;;;;;;;25.77;13.43;;;;;;;5.85;100.00;101781.88;5277836;28;20130;-72
2023/03/20 03:42:32;;;;;;;30.25;14.60;;;;;;;5.86;100.00;101783.56;5293704;28;20071;-72
2023/03/20 03:45:08;;;;;;;;;;;;;;;5.89;100.00;101760.47;5283395;28;20146;-72
2023/03/20 03:47:39;;;;;;;;;;;;;;;5.86;100.00;101765.88;5281373;28;19919;-71
2023/03/20 03:50:17;;;;;;;24.02;13.10;;;;;;;5.86;100.00;101770.34;5289123;28;19915;-72
2023/03/20 03:52:51;;;;;;;28.73;14.02;;;;;;;5.86;100.00;101765.03;5286421;28;20041;-71
2023/03/20 03:55:32;;;;;;;25.75;14.85;;;;;;;5.93;100.00;101760.34;5295615;28;20038;-72
2023/03/20 03:58:10;;;;;;;27.38;14.35;;;;;;;5.94;100.00;101762.06;5286585;28;20043;-72
2023/03/20 04:00:46;;;;;;;24.05;14.18;;;;;;;5.76;100.00;101774.31;5275117;28;20037;-72
2023/03/20 04:03:22;;;;;;;23.10;12.88;;;;;;;5.73;100.00;101764.69;5275933;28;20050;-72
2023/03/20 04:05:57;;;;;;;25.95;14.43;;;;;;;5.75;100.00;101770.78;5282245;28;20097;-72
2023/03/20 04:08:28;;;;;;;25.10;13.63;;;;;;;5.74;100.00;101765.56;5287173;28;20023;-71
2023/03/20 04:11:00;;;;;;;25.75;13.32;;;;;;;5.75;100.00;101754.03;5289713;28;20109;-71
2023/03/20 04:13:31;;;;;;;25.65;14.13;;;;;;;5.67;100.00;101755.19;5285203;28;20031;-71
2023/03/20 04:16:03;;;;;;;23.25;13.23;;;;;;;5.71;100.00;101750.66;5285849;28;20032;-72
2023/03/20 04:18:34;;;;;;;23.70;14.00;;;;;;;5.68;100.00;101756.09;5284109;28;20505;-72
2023/03/20 04:21:06;;;;;;;24.45;13.77;;;;;;;5.69;100.00;101757.78;5284018;28;20024;-72
2023/03/20 04:23:38;;;;;;;24.77;13.75;;;;;;;5.73;100.00;101754.09;5273375;28;20043;-72
2023/03/20 04:26:10;;;;;;;22.15;12.85;;;;;;;5.62;100.00;101754.56;5282729;28;20044;-72
2023/03/20 04:28:41;;;;;;;25.95;13.40;;;;;;;5.70;100.00;101755.09;5282778;28;20463;-72
2023/03/20 04:31:13;;;;;;;26.55;13.25;;;;;;;5.61;100.00;101757.25;5298452;28;20115;-71
2023/03/20 04:33:44;;;;;;;24.58;13.02;;;;;;;5.52;100.00;101765.56;5293384;28;20107;-71
2023/03/20 04:36:16;;;;;;;24.55;12.98;;;;;;;5.47;100.00;101755.19;5293546;28;20042;-72
2023/03/20 04:38:47;;;;;;;23.70;14.25;;;;;;;5.58;100.00;101747.66;5285036;28;20031;-71
2023/03/20 04:41:19;;;;;;;29.42;15.07;;;;;;;5.52;100.00;101741.75;5291036;28;20028;-72
2023/03/20 04:43:51;;;;;;;27.20;14.40;;;;;;;5.43;100.00;101746.50;5290263;28;20119;-72
2023/03/20 04:46:22;;;;;;;23.23;12.55;;;;;;;5.45;100.00;101751.72;5297697;28;20058;-73
2023/03/20 04:48:54;;;;;;;26.67;13.52;;;;;;;5.39;100.00;101746.66;5290716;28;20095;-73
2023/03/20 04:51:25;;;;;;;23.02;13.25;;;;;;;5.42;100.00;101736.81;5279716;28;20027;-72
2023/03/20 04:53:57;;;;;;;24.45;13.20;;;;;;;5.39;100.00;101723.72;5291218;28;20039;-73
2023/03/20 04:56:28;;;;;;;21.95;12.43;;;;;;;5.62;100.00;101724.53;5288811;28;20031;-72
2023/03/20 04:58:59;;;;;;;24.55;13.20;;;;;;;5.44;100.00;101721.72;5288381;28;20031;-72
2023/03/20 05:01:31;;;;;;;27.25;14.02;;;;;;;5.54;100.00;101727.50;5282294;28;20409;-72
2023/03/20 05:04:02;;;;;;;24.90;13.57;;;;;;;5.50;100.00;101736.50;5286813;28;20088;-72
2023/03/20 05:06:34;;;;;;;27.73;13.95;;;;;;;5.46;100.00;101740.22;5293713;28;20378;-72
2023/03/20 05:09:06;;;;;;;24.35;13.20;;;;;;;5.45;100.00;101741.16;5290886;28;20073;-72
2023/03/20 05:11:37;;;;;;;24.45;13.23;;;;;;;5.53;100.00;101746.97;5300107;28;20143;-72
2023/03/20 05:14:10;;;;;;;24.15;13.27;;;;;;;5.46;100.00;101741.06;5291049;28;20469;-71
2023/03/20 05:16:42;;;;;;;27.48;13.48;;;;;;;5.45;100.00;101728.75;5294425;28;20118;-72
2023/03/20 05:19:14;;;;;;;24.00;13.48;;;;;;;5.54;100.00;101727.50;5287702;28;20472;-71
2023/03/20 05:21:45;;;;;;;25.63;13.60;;;;;;;5.54;100.00;101729.31;5275401;28;20115;-72
2023/03/20 05:24:16;;;;;;;23.23;12.85;;;;;;;5.52;100.00;101726.72;5283591;28;20039;-72
2023/03/20 05:26:48;;;;;;;23.58;12.05;;;;;;;5.52;100.00;101725.88;5287616;28;20110;-72
2023/03/20 05:29:19;;;;;;;21.13;11.90;;;;;;;5.50;100.00;101724.16;5294768;28;20049;-71
2023/03/20 05:31:51;;;;;;;23.40;12.18;;;;;;;5.58;100.00;101721.19;5286455;28;20020;-71
2023/03/20 05:34:22;;;;;;;23.80;12.68;;;;;;;5.60;100.00;101737.88;5293082;28;20044;-72
2023/03/20 05:36:54;;;;;;;24.50;12.93;;;;;;;5.56;100.00;101725.69;5275832;28;20034;-72
2023/03/20 05:39:25;;;;;;;21.60;12.20;;;;;;;5.57;100.00;101727.41;5283283;28;20036;-71
2023/03/20 05:41:57;;;;;;;24.88;12.63;;;;;;;5.53;100.00;101724.94;5283502;28;20067;-72
2023/03/20 05:44:28;;;;;;;23.60;12.05;;;;;;;5.56;100.00;101725.69;5288371;28;20035;-71
2023/03/20 05:46:59;;;;;;;23.52;12.07;;;;;;;5.65;100.00;101722.63;5292567;28;20055;-71
2023/03/20 05:49:31;;;;;;;25.27;11.82;;;;;;;5.68;100.00;101722.53;5293527;28;20115;-72
2023/03/20 05:52:02;;;;;;;23.40;11.55;;;;;;;5.66;100.00;101732.31;5297992;28;20044;-72
2023/03/20 05:54:34;;;;;;;22.33;11.73;;;;;;;5.74;100.00;101731.13;5278389;28;20085;-72
2023/03/20 05:57:05;;;;;;;24.17;11.70;;;;;;;5.64;100.00;101736.81;5297426;28;20050;-72
2023/03/20 05:59:37;;;;;;;22.60;11.63;;;;;;;5.65;100.00;101749.09;5285245;28;20032;-71
2023/03/20 06:02:08;;;;;;;20.33;10.73;;;;;;;5.77;100.00;101754.81;5282958;28;20466;-72
2023/03/20 06:04:40;;;;;;;23.15;11.65;;;;;;;5.86;100.00;101762.38;5282633;28;20161;-72
2023/03/20 06:07:11;;;;;;;21.33;11.77;;;;;;;5.80;100.00;101765.31;5284943;28;20035;-72
2023/03/20 06:09:42;;;;;;;21.48;10.82;;;;;;;5.81;100.00;101757.31;5280578;28;20041;-72
2023/03/20 06:12:15;;;;;;;21.05;10.85;;;;;;;5.85;100.00;101755.38;5282799;28;20055;-71
2023/03/20 06:14:46;;;;;;;22.52;11.70;;;;;;;5.93;100.00;101753.28;5281639;28;20378;-72
2023/03/20 06:17:17;;;;;;;24.73;10.93;;;;;;;5.85;100.00;101756.25;5287957;28;20043;-72
2023/03/20 06:19:49;;;;;;;20.02;10.32;;;;;;;5.94;100.00;101760.28;5293277;28;20028;-72
2023/03/20 06:22:20;;;;;;;21.92;10.95;;;;;;;5.86;100.00;101760.59;5279053;28;20032;-72
2023/03/20 06:24:51;;;;;;;23.10;10.38;;;;;;;5.84;100.00;101758.94;5294275;28;20024;-71
2023/03/20 06:27:23;;;;;;;17.92;10.05;;;;;;;5.96;100.00;101763.75;5292015;28;20054;-72
2023/03/20 06:29:55;;;;;;;21.90;10.50;;;;;;;5.89;100.00;101770.22;5283900;28;20039;-72
2023/03/20 06:32:26;;;;;;;25.17;10.57;;;;;;;5.89;100.00;101770.22;5276358;28;20546;-72
2023/03/20 06:34:58;;;;;;;21.00;10.90;;;;;;;5.91;100.00;101768.38;5272572;28;20032;-72
2023/03/20 06:37:29;;;;;;;20.33;10.77;;;;;;;5.92;100.00;101770.06;5283256;28;20030;-72
2023/03/20 06:40:02;;;;;;;20.23;10.25;;;;;;;6.03;100.00;101764.38;5282544;28;20036;-73
2023/03/20 06:42:33;;;;;;;19.50;9.85;;;;;;;5.98;100.00;101776.94;5300363;28;20042;-72
2023/03/20 06:45:06;;;;;;;21.75;10.60;;;;;;;6.02;100.00;101775.88;5269215;28;20032;-71
2023/03/20 06:47:38;;;;;;;24.35;10.05;;;;;;;5.98;100.00;101772.50;5282846;28;20506;-70
2023/03/20 06:50:10;;;;;;;19.63;9.93;;;;;;;6.06;100.00;101791.59;5287266;28;20031;-71
2023/03/20 06:52:42;;;;;;;19.60;9.98;;;;;;;6.07;100.00;101793.28;5289582;28;20035;-74
2023/03/20 06:55:13;;;;;;;23.88;9.63;;;;;;;6.12;100.00;101802.84;5289949;28;20016;-74
2023/03/20 06:57:45;;;;;;;20.23;9.57;;;;;;;6.15;100.00;101810.66;5288222;28;20031;-71
2023/03/20 07:00:16;;;;;;;21.27;9.82;;;;;;;6.18;100.00;101799.94;5294233;28;20413;-71
2023/03/20 07:02:48;;;;;;;19.80;9.77;;;;;;;6.19;100.00;101809.59;5284900;28;20604;-74
2023/03/20 07:05:19;;;;;;;16.80;9.50;;;;;;;6.23;100.00;101805.88;5288556;28;20399;-72
2023/03/20 07:07:51;;;;;;;24.92;10.75;;;;;;;6.22;100.00;101809.47;5292467;28;20544;-72
2023/03/20 07:10:23;;;;;;;19.38;10.27;;;;;;;6.27;100.00;101812.78;5279543;28;20118;-72
2023/03/20 07:12:54;;;;;;;18.45;10.90;;;;;;;6.40;100.00;101813.97;5285799;28;20093;-72
2023/03/20 07:15:28;;;;;;;22.02;10.10;;;;;;;6.33;100.00;101814.31;5289298;28;20028;-71
2023/03/20 07:18:00;;;;;;;21.73;10.43;;;;;;;6.48;100.00;101819.81;5283981;28;20119;-72
2023/03/20 07:20:31;;;;;;;22.17;10.23;;;;;;;6.40;100.00;101821.06;5284141;28;20576;-71
2023/03/20 07:23:02;;;;;;;24.13;10.70;;;;;;;6.51;100.00;101817.97;5287749;28;20035;-71
2023/03/20 07:25:34;;;;;;;22.75;10.50;;;;;;;6.56;100.00;101814.19;5291682;28;20043;-71
2023/03/20 07:28:05;;;;;;;21.30;10.63;;;;;;;6.68;100.00;101826.03;5283278;28;20220;-71
2023/03/20 07:30:38;;;;;;;21.88;9.98;;;;;;;6.66;100.00;101825.25;5286205;28;20078;-71
2023/03/20 07:33:09;;;;;;;20.27;9.52;;;;;;;6.61;100.00;101820.13;5284169;28;20106;-70
2023/03/20 07:35:40;;;;;;;18.92;9.40;;;;;;;6.72;100.00;101826.75;5285721;28;20081;-70
2023/03/20 07:38:12;;;;;;;15.93;9.18;;;;;;;6.72;100.00;101829.41;5281301;28;20139;-71
2023/03/20 07:40:43;;;;;;;18.85;9.93;;;;;;;6.87;100.00;101823.41;5286433;28;20035;-71
2023/03/20 07:43:16;;;;;;;19.90;9.23;;;;;;;6.86;100.00;101825.22;5286969;28;20062;-72
2023/03/20 07:45:47;;;;;;;20.63;9.32;;;;;;;6.87;100.00;101828.72;5284168;28;20122;-71
2023/03/20 07:48:19;;;;;;;23.33;9.27;;;;;;;6.89;100.00;101818.91;5290171;28;20103;-71
2023/03/20 07:50:50;;;;;;;18.42;8.73;;;;;;;6.95;100.00;101823.06;5283891;28;20064;-71
2023/03/20 07:53:21;;;;;;;16.50;8.68;;;;;;;6.90;100.00;101817.97;5288835;28;20188;-71
2023/03/20 07:55:53;;;;;;;20.40;9.43;;;;;;;6.90;100.00;101823.25;5294411;28;20027;-70
2023/03/20 07:58:24;;;;;;;19.45;9.20;;;;;;;6.92;100.00;101820.53;5291372;28;20496;-70
2023/03/20 08:00:57;;;;;;;23.40;9.23;;;;;;;7.00;100.00;101818.41;5287426;28;20036;-71
2023/03/20 08:03:28;;;;;;;19.73;9.65;;;;;;;6.95;100.00;101821.28;5283392;28;20023;-71
2023/03/20 08:06:00;;;;;;;21.52;9.63;;;;;;;7.00;100.00;101823.69;5289834;28;20434;-72
2023/03/20 08:08:32;;;;;;;17.85;8.90;;;;;;;6.98;100.00;101820.25;5285502;28;20090;-72
2023/03/20 08:11:03;;;;;;;20.55;9.07;;;;;;;7.18;100.00;101817.56;5289408;28;20100;-72
2023/03/20 08:13:35;;;;;;;22.02;9.60;;;;;;;7.20;100.00;101825.44;5291386;28;20028;-73
2023/03/20 08:16:07;;;;;;;17.95;8.75;;;;;;;7.11;100.00;101828.53;5288685;28;20043;-72
2023/03/20 08:18:38;;;;;;;17.92;8.77;;;;;;;7.05;100.00;101822.56;5290074;28;20032;-73
2023/03/20 08:21:10;;;;;;;20.58;9.68;;;;;;;7.13;100.00;101824.00;5286413;28;20074;-74
2023/03/20 08:23:41;;;;;;;22.20;8.15;;;;;;;7.06;100.00;101819.00;5289413;28;20032;-74
2023/03/20 08:26:12;;;;;;;18.30;8.10;;;;;;;7.12;100.00;101820.50;5285468;28;20090;-73
2023/03/20 08:28:44;;;;;;;21.40;8.35;;;;;;;7.13;100.00;101818.69;5291186;28;20485;-72
2023/03/20 08:31:16;;;;;;;14.77;7.53;;;;;;;7.15;100.00;101822.16;5293324;28;20037;-73
2023/03/20 08:33:48;;;;;;;20.63;8.65;;;;;;;7.28;100.00;101817.13;5291996;28;20024;-72
2023/03/20 08:36:20;;;;;;;25.92;8.75;;;;;;;7.31;100.00;101817.00;5285206;28;20659;-72
2023/03/20 08:38:51;;;;;;;18.48;7.40;;;;;;;7.36;100.00;101830.91;5283318;28;20869;-72
2023/03/20 08:41:22;;;;;;;30.25;8.43;;;;;;;7.36;100.00;101828.25;5287633;28;20040;-72
2023/03/20 08:43:54;;;;;;;16.02;8.00;;;;;;;7.44;100.00;101823.41;5290712;28;20028;-72
2023/03/20 08:46:25;;;;;;;17.52;8.20;;;;;;;7.39;100.00;101826.31;5293071;28;20038;-72
2023/03/20 08:48:57;;;;;;;22.90;8.35;;;;;;;7.46;100.00;101816.28;5285359;28;20027;-72
2023/03/20 08:51:29;;;;;;;18.60;8.38;;;;;;;7.63;100.00;101821.63;5292454;28;20347;-74
2023/03/20 08:54:00;;;;;;;19.10;7.78;;;;;;;7.53;100.00;101825.66;5292001;28;20414;-73
2023/03/20 08:56:32;;;;;;;19.25;7.70;;;;;;;7.56;100.00;101825.50;5285000;28;20028;-72
2023/03/20 08:59:03;;;;;;;17.17;7.18;;;;;;;7.68;100.00;101823.19;5286073;28;20028;-74
2023/03/20 09:01:35;;;;;;;18.38;7.93;;;;;;;7.73;100.00;101816.72;5291833;28;20026;-73
2023/03/20 09:04:06;;;;;;;16.80;7.78;;;;;;;7.75;100.00;101816.66;5292143;28;20028;-73
2023/03/20 09:06:38;;;;;;;21.20;8.25;;;;;;;7.69;100.00;101820.47;5293668;28;20032;-71
2023/03/20 09:09:10;;;;;;;18.15;7.75;;;;;;;7.81;100.00;101822.50;5278792;28;20461;-71
2023/03/20 09:11:41;;;;;;;17.90;7.55;;;;;;;7.79;100.00;101824.38;5283331;28;20858;-71
2023/03/20 09:14:13;;;;;;;19.90;8.23;;;;;;;7.73;100.00;101832.66;5292524;28;20058;-73
2023/03/20 09:16:46;;;;;;;17.13;8.07;;;;;;;7.71;100.00;101825.69;5284583;28;20035;-72
2023/03/20 09:19:17;;;;;;;21.20;9.02;;;;;;;7.67;100.00;101830.31;5283051;28;20055;-72
2023/03/20 09:21:49;;;;;;;17.13;8.65;;;;;;;7.66;100.00;101841.84;5293751;28;20127;-71
2023/03/20 09:24:20;;;;;;;18.42;7.78;;;;;;;7.60;100.00;101834.19;5292812;28;20036;-71
2023/03/20 09:26:52;;;;;;;18.35;8.45;;;;;;;7.57;100.00;101842.28;5290324;28;20094;-71
2023/03/20 09:29:23;;;;;;;20.17;8.73;;;;;;;7.51;100.00;101855.88;5285847;28;20028;-73
2023/03/20 09:31:55;;;;;;;19.60;8.48;;;;;;;7.47;100.00;101853.34;5290083;28;20371;-69
2023/03/20 09:34:26;;;;;;;20.05;9.23;;;;;;;7.50;100.00;101851.47;5287145;28;20692;-74
2023/03/20 09:36:57;;;;;;;15.82;8.18;;;;;;;7.45;100.00;101846.41;5287299;28;20031;-72
2023/03/20 09:39:29;;;;;;;20.77;8.85;;;;;;;7.50;100.00;101849.72;5288739;28;20489;-71
2023/03/20 09:42:24;;;;;;;19.48;9.38;;;;;;;7.56;100.00;101846.75;5287420;28;20402;-71
2023/03/20 09:45:17;;;;;;;23.17;9.52;;;;;;;7.59;100.00;101854.59;5288364;28;20161;-70
2023/03/20 09:47:49;;;;;;;19.20;9.00;;;;;;;7.62;100.00;101851.75;5290060;28;20413;-70
2023/03/20 09:50:33;;;;;;;19.45;9.68;;;;;;;7.61;100.00;101846.53;5287046;28;20097;-70
2023/03/20 09:53:15;;;;;;;17.85;8.90;;;;;;;7.70;100.00;101851.41;5288302;28;20039;-69
2023/03/20 09:55:49;;;;;;;21.05;9.55;;;;;;;7.67;100.00;101840.94;5285927;28;20558;-69
2023/03/20 09:58:26;;;;;;;22.25;8.45;;;;;;;7.68;100.00;101844.44;5288777;28;20036;-69
2023/03/20 10:00:59;;;;;;;20.23;9.13;;;;;;;7.64;100.00;101849.88;5281672;28;20027;-69
2023/03/20 10:03:49;;;;;;;20.13;9.25;;;;;;;7.77;100.00;101842.19;5280300;28;20028;-70
2023/03/20 10:06:20;;;;;;;22.67;8.90;;;;;;;7.71;100.00;101838.97;5282559;28;20109;-70
2023/03/20 10:08:52;;;;;;;16.80;9.15;;;;;;;7.75;100.00;101840.56;5288285;28;20524;-70
2023/03/20 10:12:08;;;;;;;14.10;9.07;;;;;;;7.81;100.00;101849.09;5290240;28;20185;-70
2023/03/20 10:15:13;;;;;;;15.93;7.88;;;;;;;7.75;100.00;101832.59;5267618;28;20032;-69
2023/03/20 10:18:18;;;;;;;17.00;7.38;;;;;;;7.72;100.00;101836.25;5290975;28;20035;-70
2023/03/20 10:20:58;;;;;;;20.13;8.93;;;;;;;7.75;100.00;101828.13;5287485;28;21136;-70
2023/03/20 10:23:42;;;;;;;21.08;8.13;;;;;;;7.72;100.00;101830.06;5285635;28;20031;-70
2023/03/20 10:26:17;;;;;;;19.95;8.10;;;;;;;7.85;100.00;101826.72;5290525;28;20410;-68
2023/03/20 10:28:59;;;;;;;17.23;8.10;;;;;;;7.91;100.00;101824.72;5292629;28;20057;-70
2023/03/20 10:32:12;;;;;;;19.33;7.97;;;;;;;7.96;100.00;101826.22;5294372;28;20035;-70
2023/03/20 10:34:56;;;;;;;18.80;8.80;;;;;;;8.17;100.00;101823.41;5289449;28;20078;-70
2023/03/20 10:38:02;;;;;;;17.65;7.68;;;;;;;8.16;100.00;101821.69;5288874;28;20063;-70
2023/03/20 10:40:37;;;;;;;19.13;8.20;;;;;;;8.21;100.00;101817.88;5291222;28;20070;-70
2023/03/20 10:43:19;;;;;;;18.90;7.85;;;;;;;8.24;100.00;101803.53;5293244;28;20052;-69
2023/03/20 10:46:00;;;;;;;19.92;8.32;;;;;;;8.29;100.00;101805.97;5289051;28;20082;-70
2023/03/20 10:48:37;;;;;;;18.88;8.30;;;;;;;8.32;100.00;101820.00;5287167;28;20335;-70
2023/03/20 10:51:15;;;;;;;17.58;8.75;;;;;;;8.33;100.00;101807.53;5295690;28;20028;-71
2023/03/20 10:53:53;;;;;;;21.50;9.07;;;;;;;8.37;100.00;101820.59;5289925;28;20597;-70
2023/03/20 10:56:41;;;;;;;15.57;7.68;;;;;;;8.43;100.00;101812.31;5288237;28;20119;-71
2023/03/20 10:59:12;;;;;;;18.13;8.48;;;;;;;8.53;100.00;101820.69;5293081;28;20110;-70
2023/03/20 11:01:43;;;;;;;19.98;8.63;;;;;;;8.48;100.00;101817.41;5287658;28;20553;-70
2023/03/20 11:04:15;;;;;;;19.10;8.63;;;;;;;8.51;100.00;101816.38;5291006;28;20359;-71
2023/03/20 11:07:11;;;;;;;16.23;8.77;;;;;;;8.56;100.00;101803.72;5289924;28;20458;-71
2023/03/20 11:09:42;;;;;;;17.35;8.48;;;;;;;8.56;100.00;101806.38;5297623;28;20102;-71
2023/03/20 11:12:19;;;;;;;18.25;8.50;;;;;;;8.65;100.00;101789.94;5282579;28;21961;-71
2023/03/20 11:14:58;;;;;;;16.02;8.00;;;;;;;8.65;100.00;101795.25;5292510;28;20081;-71
2023/03/20 11:17:30;;;;;;;16.13;7.18;;;;;;;8.64;100.00;101791.72;5284740;28;20035;-71
2023/03/20 11:20:04;;;;;;;16.65;7.85;;;;;;;8.79;100.00;101790.03;5287902;28;20032;-71
2023/03/20 11:22:36;;;;;;;16.35;6.80;;;;;;;8.83;100.00;101790.75;5287752;28;20016;-72
2023/03/20 11:25:22;;;;;;;17.60;7.70;;;;;;;8.89;100.00;101778.91;5296199;28;20023;-71
2023/03/20 11:27:55;;;;;;;16.08;6.97;;;;;;;8.86;100.00;101771.06;5288741;28;20525;-72
2023/03/20 11:30:26;;;;;;;19.30;6.72;;;;;;;8.89;100.00;101765.59;5285130;28;20335;-72
2023/03/20 11:33:00;;;;;;;16.77;7.05;;;;;;;8.85;100.00;101767.56;5277079;28;20094;-72
2023/03/20 11:35:33;;;;;;;;;;;;;;;8.95;100.00;101763.44;5288746;28;20038;-71
2023/03/20 11:38:23;;;;;;;18.05;7.35;;;;;;;8.96;100.00;101759.00;5291911;28;19919;-71
2023/03/20 11:40:54;;;;;;;17.92;6.25;;;;;;;8.99;100.00;101756.16;5285271;28;20481;-72
2023/03/20 11:43:27;;;;;;;14.50;7.00;;;;;;;9.09;100.00;101753.84;5284986;28;20032;-71
2023/03/20 11:46:03;;;;;;;19.45;7.32;;;;;;;9.10;100.00;101756.41;5291272;28;20029;-71
2023/03/20 11:48:44;;;;;;;16.52;6.72;;;;;;;9.12;100.00;101754.53;5291401;28;20390;-72
2023/03/20 11:51:20;;;;;;;18.50;6.75;;;;;;;9.11;100.00;101759.94;5289927;28;20039;-71
2023/03/20 11:54:06;;;;;;;18.30;6.63;;;;;;;9.17;100.00;101754.28;5291730;28;20040;-71